createdAt,value
2023-05-10T00:02:16.308Z,24.62
2023-05-10T00:05:19.625Z,24.82
2023-05-10T00:08:22.944Z,24.62
2023-05-10T00:11:26.412Z,24.41
2023-05-10T00:14:29.775Z,24.21
2023-05-10T00:17:58.650Z,24.33
2023-05-10T00:21:02.090Z,24.37
2023-05-10T00:24:05.737Z,24.43
2023-05-10T00:27:09.107Z,24.33
2023-05-10T00:30:12.654Z,24.05
2023-05-10T00:33:16.132Z,24.76
2023-05-10T00:36:19.394Z,24.35
2023-05-10T00:39:22.722Z,23.63
2023-05-10T00:42:26.240Z,22.21
2023-05-10T00:45:33.058Z,20.87
2023-05-10T00:48:36.861Z,19.56
2023-05-10T00:51:40.395Z,18.70
2023-05-10T00:54:44.045Z,18.27
2023-05-10T00:57:47.989Z,17.74
2023-05-10T01:00:52.642Z,17.61
2023-05-10T01:03:57.214Z,17.42
2023-05-10T01:07:01.167Z,17.42
2023-05-10T01:10:04.772Z,17.52
2023-05-10T01:13:08.172Z,17.62
2023-05-10T01:16:11.600Z,17.53
2023-05-10T01:19:27.162Z,17.59
2023-05-10T01:22:57.929Z,17.63
2023-05-10T01:26:51.145Z,17.70
2023-05-10T01:30:17.020Z,18.05
2023-05-10T01:33:26.611Z,18.19
2023-05-10T01:36:39.813Z,18.15
2023-05-10T01:40:15.691Z,18.22
2023-05-10T01:43:28.321Z,18.53
2023-05-10T01:46:40.376Z,18.67
2023-05-10T01:49:49.491Z,18.86
2023-05-10T01:52:56.647Z,19.21
2023-05-10T01:56:01.960Z,19.52
2023-05-10T01:59:10.928Z,19.67
2023-05-10T02:02:15.727Z,19.84
2023-05-10T02:05:40.751Z,20.17
2023-05-10T02:08:45.093Z,20.53
2023-05-10T02:11:50.746Z,20.80
2023-05-10T02:14:55.578Z,20.86
2023-05-10T02:18:00.558Z,21.21
2023-05-10T02:21:04.846Z,21.52
2023-05-10T02:24:10.356Z,21.69
2023-05-10T02:27:16.173Z,21.63
2023-05-10T02:30:21.061Z,21.85
2023-05-10T02:33:25.982Z,22.00
2023-05-10T02:36:30.527Z,22.17
2023-05-10T02:39:34.391Z,22.47
2023-05-10T02:43:00.437Z,22.65
2023-05-10T02:46:04.285Z,22.65
2023-05-10T02:49:08.361Z,22.71
2023-05-10T02:52:36.698Z,22.68
2023-05-10T02:55:52.445Z,22.77
2023-05-10T03:17:16.717Z,23.44
2023-05-10T03:20:33.914Z,23.37
2023-05-10T03:24:37.437Z,23.48
2023-05-10T03:27:30.391Z,23.55
2023-05-10T03:30:35.604Z,23.57
2023-05-10T03:33:51.366Z,23.57
2023-05-10T03:37:13.304Z,23.55
2023-05-10T03:52:02.982Z,24.07
2023-05-10T03:55:09.597Z,24.06
2023-05-10T03:58:37.264Z,23.99
2023-05-10T04:01:41.082Z,24.03
2023-05-10T04:04:46.196Z,24.09
2023-05-10T04:11:15.253Z,23.89
2023-05-10T04:14:18.996Z,23.98
2023-05-10T04:17:25.869Z,24.16
2023-05-10T04:23:46.818Z,24.33
2023-05-10T04:26:53.264Z,24.34
2023-05-10T04:29:56.827Z,24.35
2023-05-10T04:33:00.502Z,24.33
2023-05-10T04:36:04.914Z,24.30
2023-05-10T04:39:16.592Z,24.40
2023-05-10T04:45:46.126Z,24.52
2023-05-10T04:48:53.066Z,24.47
2023-05-10T04:51:59.132Z,24.54
2023-05-10T04:55:17.518Z,24.51
2023-05-10T04:58:21.564Z,24.67
2023-05-10T05:01:25.524Z,24.88
2023-05-10T05:04:31.331Z,24.99
2023-05-10T05:07:51.520Z,25.09
2023-05-10T05:11:11.169Z,25.30
2023-05-10T05:14:44.710Z,25.34
2023-05-10T05:17:58.026Z,25.40
2023-05-10T05:24:36.338Z,25.93
2023-05-10T05:27:44.862Z,26.15
2023-05-10T05:34:10.619Z,26.36
2023-05-10T05:37:18.213Z,26.52
2023-05-10T05:40:22.620Z,26.60
2023-05-10T05:43:32.483Z,26.39
2023-05-10T05:46:36.724Z,26.33
2023-05-10T05:49:41.444Z,26.47
2023-05-10T05:52:45.223Z,26.58
2023-05-10T05:59:55.943Z,26.82
2023-05-10T06:03:00.529Z,27.06
2023-05-10T06:06:06.352Z,27.30
2023-05-10T06:09:24.797Z,27.46
2023-05-10T06:12:49.988Z,27.67
2023-05-10T06:15:53.637Z,27.70
2023-05-10T06:18:58.365Z,27.84
2023-05-10T06:22:09.577Z,27.76
2023-05-10T06:25:14.067Z,27.91
2023-05-10T06:28:18.099Z,27.99
2023-05-10T06:31:27.246Z,27.96
2023-05-10T06:37:49.641Z,28.09
2023-05-10T06:41:01.592Z,28.24
2023-05-10T06:44:06.526Z,28.39
2023-05-10T06:47:22.233Z,28.44
2023-05-10T06:50:42.413Z,28.27
2023-05-10T06:57:23.199Z,28.53
2023-05-10T07:00:36.555Z,28.49
2023-05-10T07:04:01.286Z,28.32
2023-05-10T07:07:17.984Z,28.20
2023-05-10T07:10:21.807Z,28.02
2023-05-10T07:13:28.714Z,27.85
2023-05-10T07:16:34.217Z,27.72
2023-05-10T07:19:41.094Z,27.62
2023-05-10T07:22:44.921Z,27.32
2023-05-10T07:25:54.079Z,27.23
2023-05-10T07:29:03.692Z,27.23
2023-05-10T07:32:14.350Z,27.12
2023-05-10T07:35:18.356Z,26.96
2023-05-10T07:38:25.325Z,26.64
2023-05-10T07:41:33.920Z,26.64
2023-05-10T07:44:45.258Z,26.58
2023-05-10T07:47:50.983Z,26.43
2023-05-10T07:51:01.065Z,26.23
2023-05-10T07:54:04.913Z,26.22
2023-05-10T07:57:11.083Z,26.29
2023-05-10T08:00:18.796Z,26.30
2023-05-10T08:03:33.903Z,26.32
2023-05-10T08:06:44.575Z,26.27
2023-05-10T08:09:49.706Z,26.34
2023-05-10T08:12:53.446Z,26.39
2023-05-10T08:16:08.722Z,26.43
2023-05-10T08:19:13.458Z,26.39
2023-05-10T08:22:17.881Z,26.44
2023-05-10T08:25:21.948Z,26.51
2023-05-10T08:28:26.179Z,26.51
2023-05-10T08:31:29.869Z,26.57
2023-05-10T08:34:33.607Z,26.48
2023-05-10T08:37:41.199Z,26.52
2023-05-10T08:44:10.273Z,26.33
2023-05-10T08:47:15.368Z,26.36
2023-05-10T08:50:22.240Z,26.37
2023-05-10T08:53:29.056Z,26.34
2023-05-10T08:56:32.782Z,26.30
2023-05-10T08:59:36.454Z,26.26
2023-05-10T09:02:40.038Z,26.20
2023-05-10T09:05:44.152Z,26.12
2023-05-10T09:08:54.389Z,26.02
2023-05-10T09:11:58.840Z,25.90
2023-05-10T09:15:04.679Z,25.86
2023-05-10T09:18:10.756Z,25.85
2023-05-10T09:28:35.620Z,25.67
2023-05-10T09:31:57.165Z,25.54
2023-05-10T09:35:09.131Z,25.40
2023-05-10T09:42:10.822Z,24.95
2023-05-10T09:45:15.424Z,24.79
2023-05-10T09:48:19.547Z,24.65
2023-05-10T09:51:50.918Z,24.47
2023-05-10T09:54:57.420Z,24.34
2023-05-10T09:58:02.953Z,24.30
2023-05-10T10:01:06.741Z,24.23
2023-05-10T10:04:11.731Z,24.20
2023-05-10T10:07:17.750Z,24.24
2023-05-10T10:10:24.102Z,24.20
2023-05-10T10:13:27.414Z,24.21
2023-05-10T10:16:34.926Z,24.17
2023-05-10T10:19:41.435Z,24.18
2023-05-10T10:22:47.919Z,24.18
2023-05-10T10:25:51.770Z,24.17
2023-05-10T10:29:17.077Z,24.17
2023-05-10T10:32:39.870Z,24.09
2023-05-10T10:35:54.584Z,24.02
2023-05-10T10:39:02.293Z,24.03
2023-05-10T10:42:09.618Z,24.03
2023-05-10T10:45:18.282Z,24.02
2023-05-10T10:48:24.813Z,24.00
2023-05-10T10:51:32.946Z,23.95
2023-05-10T10:54:37.509Z,23.83
2023-05-10T10:57:48.303Z,23.81
2023-05-10T11:00:52.182Z,23.68
2023-05-10T11:04:08.008Z,23.57
2023-05-10T11:10:55.248Z,23.33
2023-05-10T11:14:05.821Z,23.18
2023-05-10T11:17:31.185Z,23.06
2023-05-10T11:20:41.479Z,22.88
2023-05-10T11:23:59.020Z,22.69
2023-05-10T11:27:02.776Z,22.49
2023-05-10T11:30:08.605Z,22.35
2023-05-10T11:33:17.012Z,22.22
2023-05-10T11:36:34.118Z,22.06
2023-05-10T11:39:37.497Z,21.93
2023-05-10T11:42:41.048Z,21.79
2023-05-10T11:45:44.358Z,21.71
2023-05-10T11:48:48.691Z,21.56
2023-05-10T11:51:51.906Z,21.46
2023-05-10T11:54:56.229Z,21.35
2023-05-10T11:58:03.967Z,21.23
2023-05-10T12:01:09.373Z,21.14
2023-05-10T12:04:13.297Z,21.07
2023-05-10T12:07:16.854Z,21.01
2023-05-10T12:10:28.361Z,20.94
2023-05-10T12:13:31.813Z,20.91
2023-05-10T12:16:35.280Z,20.87
2023-05-10T12:19:41.749Z,20.83
2023-05-10T12:23:00.491Z,20.80
2023-05-10T12:26:07.925Z,20.76
2023-05-10T12:29:19.018Z,20.72
2023-05-10T12:32:22.408Z,20.72
2023-05-10T12:35:25.828Z,20.69
2023-05-10T12:38:31.451Z,20.68
2023-05-10T12:41:34.772Z,20.69
2023-05-10T12:44:38.153Z,20.68
2023-05-10T12:47:43.767Z,20.65
2023-05-10T12:50:47.998Z,20.69
2023-05-10T12:53:51.318Z,20.68
2023-05-10T12:56:54.583Z,20.65
2023-05-10T12:59:57.974Z,20.56
2023-05-10T13:03:01.301Z,20.52
2023-05-10T13:06:04.748Z,20.49
2023-05-10T13:09:08.599Z,20.48
2023-05-10T13:12:11.972Z,20.48
2023-05-10T13:15:15.329Z,20.46
2023-05-10T13:18:18.767Z,20.48
2023-05-10T13:21:22.182Z,20.46
2023-05-10T13:24:25.572Z,20.46
2023-05-10T13:27:29.648Z,20.45
2023-05-10T13:30:33.068Z,20.52
2023-05-10T13:33:36.539Z,20.62
2023-05-10T13:36:40.037Z,20.63
2023-05-10T13:39:43.312Z,20.61
2023-05-10T13:42:47.059Z,20.61
2023-05-10T13:45:50.333Z,20.55
2023-05-10T13:48:53.588Z,20.48
2023-05-10T13:51:56.900Z,20.45
2023-05-10T13:55:00.227Z,20.46
2023-05-10T13:58:03.483Z,20.46
2023-05-10T14:01:06.841Z,20.45
2023-05-10T14:04:13.376Z,20.46
2023-05-10T14:07:16.868Z,20.44
2023-05-10T14:10:24.000Z,20.42
2023-05-10T14:13:27.704Z,20.39
2023-05-10T14:16:31.343Z,20.37
2023-05-10T14:19:35.830Z,20.35
2023-05-10T14:22:42.052Z,20.37
2023-05-10T14:25:45.658Z,20.38
2023-05-10T14:28:49.359Z,20.35
2023-05-10T14:31:52.987Z,20.34
2023-05-10T14:34:56.530Z,20.34
2023-05-10T14:38:00.471Z,20.34
2023-05-10T14:41:04.094Z,20.27
2023-05-10T14:44:07.914Z,20.21
2023-05-10T14:47:11.977Z,20.18
2023-05-10T14:50:28.278Z,20.14
2023-05-10T14:53:39.202Z,20.11
2023-05-10T14:56:43.541Z,20.00
2023-05-10T14:59:47.055Z,19.96
2023-05-10T15:02:51.328Z,19.96
2023-05-10T15:05:55.557Z,19.84
2023-05-10T15:09:01.444Z,19.72
2023-05-10T15:12:07.399Z,19.62
2023-05-10T15:15:10.975Z,19.55
2023-05-10T15:18:14.637Z,19.55
2023-05-10T15:21:18.274Z,19.58
2023-05-10T15:24:28.607Z,19.59
2023-05-10T15:27:34.981Z,19.54
2023-05-10T15:35:43.385Z,19.52
2023-05-10T15:38:31.203Z,19.52
2023-05-10T15:41:34.503Z,19.46
2023-05-10T15:44:40.034Z,19.44
2023-05-10T15:47:43.380Z,19.41
2023-05-10T15:50:46.873Z,19.36
2023-05-10T15:54:05.357Z,19.39
2023-05-10T15:57:10.167Z,19.41
2023-05-10T16:00:14.471Z,19.38
2023-05-10T16:03:17.666Z,19.39
2023-05-10T16:06:21.092Z,19.34
2023-05-10T16:09:24.826Z,19.34
2023-05-10T16:12:28.145Z,19.29
2023-05-10T16:15:31.485Z,19.25
2023-05-10T16:18:34.866Z,19.12
2023-05-10T16:21:38.798Z,19.04
2023-05-10T16:24:43.090Z,18.96
2023-05-10T16:27:46.433Z,18.94
2023-05-10T16:30:50.151Z,18.87
2023-05-10T16:33:53.455Z,18.82
2023-05-10T16:36:56.754Z,18.76
2023-05-10T16:40:00.016Z,18.76
2023-05-10T16:43:03.341Z,18.76
2023-05-10T16:46:12.494Z,18.74
2023-05-10T16:49:15.874Z,18.77
2023-05-10T16:52:19.188Z,18.82
2023-05-10T16:55:24.759Z,18.80
2023-05-10T16:58:29.502Z,18.83
2023-05-10T17:01:34.584Z,18.84
2023-05-10T17:04:37.930Z,18.82
2023-05-10T17:07:41.217Z,18.80
2023-05-10T17:10:44.752Z,18.86
2023-05-10T17:13:48.288Z,18.87
2023-05-10T17:16:53.352Z,18.91
2023-05-10T17:19:57.066Z,18.94
2023-05-10T17:23:01.288Z,18.90
2023-05-10T17:26:07.837Z,18.87
2023-05-10T17:29:11.494Z,18.76
2023-05-10T17:32:14.791Z,18.66
2023-05-10T17:35:18.459Z,18.59
2023-05-10T17:38:21.914Z,18.48
2023-05-10T17:41:25.254Z,18.44
2023-05-10T17:44:28.594Z,18.45
2023-05-10T17:47:32.169Z,18.35
2023-05-10T17:50:36.057Z,18.34
2023-05-10T17:53:42.468Z,18.34
2023-05-10T17:56:45.797Z,18.29
2023-05-10T17:59:49.075Z,18.38
2023-05-10T18:02:52.391Z,18.35
2023-05-10T18:05:56.080Z,18.39
2023-05-10T18:08:59.385Z,18.41
2023-05-10T18:12:06.714Z,18.42
2023-05-10T18:15:10.568Z,18.38
2023-05-10T18:18:13.864Z,18.18
2023-05-10T18:21:18.404Z,17.94
2023-05-10T18:24:37.022Z,17.79
2023-05-10T18:27:42.099Z,17.36
2023-05-10T18:30:45.626Z,17.06
2023-05-10T18:33:48.963Z,16.73
2023-05-10T18:36:53.107Z,16.57
2023-05-10T18:39:56.574Z,16.46
2023-05-10T18:42:59.874Z,16.46
2023-05-10T18:46:03.204Z,16.48
2023-05-10T18:49:07.163Z,16.45
2023-05-10T18:52:11.371Z,16.41
2023-05-10T18:55:14.905Z,16.36
2023-05-10T18:58:18.658Z,16.33
2023-05-10T19:01:22.065Z,16.19
2023-05-10T19:04:25.442Z,16.11
2023-05-10T19:07:28.758Z,16.10
2023-05-10T19:10:32.089Z,16.11
2023-05-10T19:13:35.491Z,16.12
2023-05-10T19:16:42.237Z,16.11
2023-05-10T19:19:46.418Z,16.01
2023-05-10T19:23:08.200Z,15.94
2023-05-10T19:26:13.506Z,15.76
2023-05-10T19:29:17.169Z,15.50
2023-05-10T19:32:20.573Z,15.19
2023-05-10T19:35:24.746Z,14.98
2023-05-10T19:38:28.138Z,14.91
2023-05-10T19:41:31.638Z,14.84
2023-05-10T19:44:35.008Z,14.76
2023-05-10T19:47:40.863Z,14.70
2023-05-10T19:50:44.342Z,14.65
2023-05-10T19:53:48.014Z,14.60
2023-05-10T19:56:51.430Z,14.62
2023-05-10T19:59:54.848Z,14.63
2023-05-10T20:02:58.631Z,14.65
2023-05-10T20:06:02.461Z,14.57
2023-05-10T20:09:05.842Z,14.57
2023-05-10T20:12:09.520Z,14.30
2023-05-10T20:15:12.918Z,14.08
2023-05-10T20:18:16.180Z,13.84
2023-05-10T20:21:19.590Z,13.69
2023-05-10T20:24:23.156Z,13.66
2023-05-10T20:27:26.458Z,13.62
2023-05-10T20:30:29.966Z,13.63
2023-05-10T20:33:33.712Z,13.62
2023-05-10T20:36:37.118Z,13.47
2023-05-10T20:39:40.393Z,13.42
2023-05-10T20:42:43.626Z,13.42
2023-05-10T20:45:46.943Z,13.35
2023-05-10T20:48:50.336Z,13.26
2023-05-10T20:51:53.690Z,13.28
2023-05-10T20:54:57.048Z,13.29
2023-05-10T20:58:01.140Z,13.26
2023-05-10T21:01:06.220Z,13.22
2023-05-10T21:04:09.487Z,13.23
2023-05-10T21:07:12.925Z,13.26
2023-05-10T21:10:16.924Z,13.25
2023-05-10T21:13:20.525Z,13.26
2023-05-10T21:16:23.891Z,13.14
2023-05-10T21:19:27.569Z,13.02
2023-05-10T21:22:31.136Z,12.91
2023-05-10T21:25:34.561Z,12.87
2023-05-10T21:28:40.115Z,12.93
2023-05-10T21:31:43.675Z,12.91
2023-05-10T21:34:46.933Z,12.98
2023-05-10T21:37:50.191Z,13.02
2023-05-10T21:40:53.486Z,13.11
2023-05-10T21:43:57.230Z,13.23
2023-05-10T21:47:00.494Z,13.35
2023-05-10T21:50:04.415Z,13.38
2023-05-10T21:53:07.706Z,13.35
2023-05-10T21:56:11.113Z,13.38
2023-05-10T21:59:15.340Z,13.47
2023-05-10T22:02:18.832Z,13.60
2023-05-10T22:05:22.139Z,13.56
2023-05-10T22:08:25.518Z,13.60
2023-05-10T22:11:28.833Z,13.77
2023-05-10T22:14:32.104Z,13.84
2023-05-10T22:17:35.586Z,14.00
2023-05-10T22:20:38.921Z,14.10
2023-05-10T22:23:42.392Z,14.19
2023-05-10T22:26:45.925Z,14.28
2023-05-10T22:29:49.367Z,14.21
2023-05-10T22:32:52.690Z,14.02
2023-05-10T22:38:56.156Z,14.00
2023-05-10T22:41:59.517Z,14.00
2023-05-10T22:45:02.784Z,14.02
2023-05-10T22:48:06.279Z,14.15
2023-05-10T22:51:09.825Z,14.11
2023-05-10T22:54:13.229Z,14.17
2023-05-10T23:00:17.497Z,14.18
2023-05-10T23:03:21.032Z,14.32
2023-05-10T23:06:24.572Z,14.63
2023-05-10T23:09:27.922Z,14.77
2023-05-10T23:12:32.054Z,14.90
2023-05-10T23:15:36.907Z,15.17
2023-05-10T23:18:40.416Z,15.59
2023-05-10T23:21:44.213Z,16.29
2023-05-10T23:24:47.640Z,17.31
2023-05-10T23:27:51.136Z,18.44
2023-05-10T23:30:59.257Z,18.90
2023-05-10T23:34:02.680Z,18.62
2023-05-10T23:37:06.853Z,18.31
2023-05-10T23:40:10.839Z,18.19
2023-05-10T23:43:16.779Z,18.22
2023-05-10T23:46:20.179Z,18.24
2023-05-10T23:49:23.584Z,18.57
2023-05-10T23:52:27.167Z,19.80
2023-05-10T23:55:30.515Z,21.00
2023-05-10T23:58:33.887Z,21.88
